Time;durP1;ratioP1;P1;durP2;ratioP2;P2;SDS_P1;SDS_P2;PMS_P1;PMS_P2;Temp;Humidity;BMP_temperature;BMP_pressure;BME280_temperature;BME280_humidity;BME280_pressure;Samples;Min_cycle;Max_cycle;Signal;HPM_P1;HPM_P2
2022/08/12 00:46:29;;;;;;;6.95;6.00;;;27.60;51.40;;;;;;5008478;51;20998;-29
2022/08/12 00:56:53;;;;;;;6.10;5.50;;;27.60;51.90;;;;;;5007904;51;21038;-35
2022/08/12 01:01:58;;;;;;;5.80;5.30;;;27.60;51.50;;;;;;5031135;51;21002;-31
2022/08/12 01:12:22;;;;;;;5.95;5.35;;;27.60;51.60;;;;;;5007648;51;21010;-31
2022/08/12 01:17:24;;;;;;;5.85;5.25;;;27.60;51.60;;;;;;5070396;51;21045;-25
2022/08/12 01:25:47;;;;;;;5.70;5.15;;;27.60;51.70;;;;;;5030334;51;21006;-35
2022/08/12 01:30:49;;;;;;;5.45;4.90;;;27.60;51.70;;;;;;5050387;51;21500;-36
2022/08/12 01:36:02;;;;;;;5.20;4.80;;;27.60;52.00;;;;;;5020370;51;21050;-33
2022/08/12 01:41:07;;;;;;;6.22;4.53;;;27.60;51.80;;;;;;5054453;51;21103;-36
2022/08/12 01:49:05;;;;;;;5.35;4.70;;;27.60;52.00;;;;;;5021101;51;21843;-32
2022/08/12 01:54:16;;;;;;;5.28;4.78;;;27.60;51.80;;;;;;5014242;51;21536;-30
2022/08/12 01:59:48;;;;;;;5.37;4.87;;;27.60;52.00;;;;;;5044384;51;21057;-31
2022/08/12 02:11:17;;;;;;;5.18;4.68;;;27.60;51.80;;;;;;5008194;51;21046;-26
2022/08/12 02:17:19;;;;;;;5.18;4.68;;;27.50;52.10;;;;;;5031006;51;21536;-26
2022/08/12 02:22:37;;;;;;;5.65;5.07;;;27.50;52.00;;;;;;5035352;51;21415;-37
2022/08/12 02:27:41;;;;;;;5.28;4.60;;;27.50;51.60;;;;;;5008202;55;21591;-31
2022/08/12 02:32:44;;;;;;;4.50;4.10;;;27.50;52.10;;;;;;5024397;51;21073;-34
2022/08/12 02:37:48;;;;;;;5.10;4.60;;;27.60;51.90;;;;;;5052699;51;20986;-29
2022/08/12 02:42:59;;;;;;;7.10;4.55;;;27.50;51.80;;;;;;5046966;51;21535;-32
2022/08/12 02:48:06;;;;;;;4.80;4.40;;;27.50;52.20;;;;;;5068907;51;21033;-30
2022/08/12 02:53:09;;;;;;;4.50;4.10;;;27.50;51.90;;;;;;5082423;51;21021;-30
2022/08/12 02:58:11;;;;;;;4.43;3.83;;;27.50;52.00;;;;;;5033775;51;21041;-27
2022/08/12 03:03:13;;;;;;;4.65;4.25;;;27.50;51.80;;;;;;5049190;51;21637;-34
2022/08/12 03:08:18;;;;;;;4.78;3.80;;;27.50;51.90;;;;;;5047643;51;21042;-29
2022/08/12 03:13:24;;;;;;;4.30;3.90;;;27.50;52.20;;;;;;5013802;51;21038;-30
2022/08/12 03:18:31;;;;;;;4.40;4.00;;;27.50;51.90;;;;;;5011739;51;21495;-30
2022/08/12 03:23:32;;;;;;;4.35;3.95;;;27.50;51.90;;;;;;5049148;51;21002;-32
2022/08/12 03:28:50;;;;;;;4.47;4.07;;;27.50;51.90;;;;;;5008137;52;21002;-29
2022/08/12 03:33:52;;;;;;;4.40;4.00;;;27.50;51.80;;;;;;5056749;51;21525;-30
2022/08/12 03:39:19;;;;;;;4.90;4.45;;;27.50;51.70;;;;;;5073170;51;21050;-29
2022/08/12 04:00:37;;;;;;;4.10;3.70;;;27.50;51.10;;;;;;5023723;51;21022;-31
2022/08/12 04:05:38;;;;;;;4.00;3.70;;;27.50;51.30;;;;;;5015191;51;21468;-26
2022/08/12 04:16:00;;;;;;;4.50;3.83;;;27.40;51.20;;;;;;5008398;51;21081;-34
2022/08/12 04:21:02;;;;;;;4.20;3.85;;;27.50;51.30;;;;;;5068748;51;21650;-32
2022/08/12 04:26:05;;;;;;;4.15;3.70;;;27.50;51.10;;;;;;5007650;55;21006;-31
2022/08/12 04:31:06;;;;;;;5.07;4.00;;;27.40;51.00;;;;;;5059208;51;21048;-27
2022/08/12 04:36:10;;;;;;;4.28;3.87;;;27.40;51.00;;;;;;5027399;51;22508;-26
2022/08/12 04:41:11;;;;;;;4.12;3.72;;;27.40;50.80;;;;;;5020862;51;21460;-26
2022/08/12 04:46:13;;;;;;;3.78;3.42;;;27.40;50.80;;;;;;5088962;51;21496;-33
2022/08/12 04:51:13;;;;;;;3.80;3.47;;;27.40;50.80;;;;;;5008288;55;21053;-33
2022/08/12 04:56:15;;;;;;;3.67;3.20;;;27.40;50.90;;;;;;5014987;51;20990;-28
2022/08/12 05:01:17;;;;;;;4.47;3.50;;;27.40;50.70;;;;;;5008223;55;20994;-36
2022/08/12 05:06:18;;;;;;;4.68;3.85;;;27.40;50.80;;;;;;5022634;51;21429;-34
2022/08/12 05:11:21;;;;;;;6.35;3.70;;;27.40;50.60;;;;;;5028386;51;20990;-36
2022/08/12 05:16:23;;;;;;;3.75;3.45;;;27.30;50.30;;;;;;5031961;51;21527;-26
2022/08/12 05:21:25;;;;;;;4.25;3.55;;;27.30;50.60;;;;;;5032203;51;21508;-27
2022/08/12 05:26:28;;;;;;;3.78;3.45;;;27.40;50.70;;;;;;5041594;51;21488;-25
2022/08/12 05:31:29;;;;;;;5.30;3.83;;;27.40;50.50;;;;;;5028695;51;21522;-30
2022/08/12 05:36:30;;;;;;;4.47;3.72;;;27.40;50.40;;;;;;5017343;51;21459;-26
2022/08/12 05:41:34;;;;;;;4.70;4.10;;;27.30;50.40;;;;;;5029677;51;20987;-36
2022/08/12 05:46:36;;;;;;;3.97;3.60;;;27.40;50.40;;;;;;5049642;51;21480;-25
2022/08/12 05:51:38;;;;;;;4.78;4.07;;;27.40;50.00;;;;;;5007832;51;21037;-26
2022/08/12 05:56:40;;;;;;;6.05;4.28;;;27.30;50.10;;;;;;5020486;51;21405;-27
2022/08/12 06:01:41;;;;;;;4.82;3.97;;;27.30;50.10;;;;;;5037945;51;21574;-28
2022/08/12 06:06:42;;;;;;;5.57;4.20;;;27.30;50.00;;;;;;5007071;55;21540;-28
2022/08/12 06:11:46;;;;;;;5.15;4.37;;;27.30;50.00;;;;;;5025890;51;20990;-28
2022/08/12 06:16:48;;;;;;;5.85;4.57;;;27.30;50.00;;;;;;5017305;51;21583;-27
2022/08/12 06:21:50;;;;;;;6.50;4.50;;;27.30;50.70;;;;;;5022936;51;20998;-30
2022/08/12 06:26:51;;;;;;;7.62;4.78;;;27.30;50.00;;;;;;5029453;51;21520;-29
2022/08/12 06:31:52;;;;;;;8.75;4.62;;;27.30;49.70;;;;;;5021013;51;20962;-29
2022/08/12 06:36:53;;;;;;;5.15;4.18;;;27.30;49.70;;;;;;5015555;51;20982;-30
2022/08/12 06:47:15;;;;;;;5.95;4.70;;;27.30;49.70;;;;;;5007224;51;21006;-33
2022/08/12 06:52:16;;;;;;;7.45;5.35;;;27.30;49.80;;;;;;5007357;52;21448;-29
2022/08/12 06:57:17;;;;;;;7.40;5.40;;;27.30;49.80;;;;;;5014492;51;20978;-28
2022/08/12 07:02:21;;;;;;;8.68;5.93;;;27.30;49.90;;;;;;5022308;51;21460;-29
2022/08/12 07:07:22;;;;;;;9.35;6.53;;;27.30;49.70;;;;;;5007592;55;21871;-28
2022/08/12 07:12:26;;;;;;;11.82;6.93;;;27.30;49.70;;;;;;5038703;51;21005;-29
2022/08/12 07:17:35;;;;;;;8.10;6.40;;;27.30;49.60;;;;;;5027944;51;21503;-25
2022/08/12 07:22:37;;;;;;;11.68;7.15;;;27.30;49.80;;;;;;5012247;51;21622;-30
2022/08/12 07:27:39;;;;;;;12.00;7.05;;;27.30;49.60;;;;;;5016989;51;21456;-28
2022/08/12 07:32:40;;;;;;;10.30;7.60;;;27.30;49.70;;;;;;5038458;51;20998;-34
2022/08/12 07:37:41;;;;;;;10.35;7.60;;;27.30;49.60;;;;;;5016367;51;21049;-27
2022/08/12 07:42:42;;;;;;;11.40;7.68;;;27.30;49.60;;;;;;5015054;51;21479;-29
2022/08/12 07:47:43;;;;;;;54.70;29.23;;;27.30;49.50;;;;;;5045099;51;21546;-28
2022/08/12 07:52:47;;;;;;;53.47;28.80;;;27.20;44.30;;;;;;5012707;51;20972;-26
2022/08/12 07:57:56;;;;;;;43.22;24.50;;;27.10;44.10;;;;;;5040836;51;21615;-27
2022/08/12 08:02:58;;;;;;;48.53;26.23;;;27.00;43.60;;;;;;5025733;51;21496;-27
2022/08/12 08:08:01;;;;;;;64.40;38.15;;;26.90;43.10;;;;;;5041416;51;21006;-30
2022/08/12 08:13:03;;;;;;;70.00;41.90;;;26.90;42.90;;;;;;5042385;51;21460;-30
2022/08/12 08:18:09;;;;;;;46.25;28.77;;;27.00;43.20;;;;;;5047618;51;21528;-31
2022/08/12 08:23:16;;;;;;;43.45;25.58;;;26.90;42.80;;;;;;5006761;55;21041;-27
2022/08/12 08:28:17;;;;;;;41.63;24.77;;;27.00;43.60;;;;;;5042366;51;20999;-28
2022/08/12 08:33:19;;;;;;;39.45;26.52;;;27.00;43.20;;;;;;5008277;55;21538;-34
2022/08/12 08:38:20;;;;;;;47.22;30.60;;;27.00;42.90;;;;;;5028672;51;21021;-35
2022/08/12 08:43:21;;;;;;;51.33;35.10;;;27.00;42.90;;;;;;5010797;51;21002;-35
2022/08/12 08:48:23;;;;;;;50.20;34.53;;;27.00;42.80;;;;;;5012786;51;21076;-29
2022/08/12 08:53:25;;;;;;;36.90;25.88;;;26.90;42.20;;;;;;5018941;51;20994;-28
2022/08/12 08:58:26;;;;;;;34.38;17.50;;;26.90;41.80;;;;;;5099912;51;21132;-32
2022/08/12 09:03:27;;;;;;;29.70;17.67;;;26.90;42.20;;;;;;5024391;51;21066;-31
2022/08/12 09:08:28;;;;;;;54.38;22.62;;;26.90;42.30;;;;;;5056868;51;21686;-33
2022/08/12 09:13:33;;;;;;;51.65;23.33;;;27.00;42.60;;;;;;5008205;51;21464;-31
2022/08/12 09:18:34;;;;;;;35.20;20.33;;;27.00;42.90;;;;;;5017991;51;21484;-35
2022/08/12 09:23:38;;;;;;;46.83;22.95;;;27.00;43.90;;;;;;5038930;51;21006;-30
2022/08/12 09:28:39;;;;;;;49.42;23.30;;;27.00;43.50;;;;;;5023952;51;21073;-29
2022/08/12 09:33:40;;;;;;;37.10;22.15;;;27.00;44.40;;;;;;5004488;51;21475;-26
2022/08/12 09:38:43;;;;;;;42.60;23.35;;;27.10;43.90;;;;;;5003750;55;21061;-28
2022/08/12 09:49:05;;;;;;;36.38;22.27;;;27.10;44.10;;;;;;5005969;51;21002;-29
2022/08/12 09:54:06;;;;;;;37.88;23.58;;;27.10;44.20;;;;;;5061512;51;21518;-27
2022/08/12 09:59:08;;;;;;;41.35;23.67;;;27.20;44.40;;;;;;5062082;51;21041;-26
2022/08/12 10:04:09;;;;;;;34.90;23.15;;;27.10;44.30;;;;;;5050390;51;21543;-29
2022/08/12 10:09:11;;;;;;;35.08;23.05;;;27.20;44.70;;;;;;5021678;51;21040;-28
2022/08/12 10:14:11;;;;;;;34.40;23.25;;;27.20;44.50;;;;;;5044055;51;21034;-27
2022/08/12 10:19:14;;;;;;;34.38;22.37;;;27.20;44.60;;;;;;5038081;51;21014;-30
2022/08/12 10:24:17;;;;;;;35.95;22.75;;;27.20;44.70;;;;;;5007756;51;21523;-30
2022/08/12 10:34:41;;;;;;;32.15;22.45;;;27.20;44.80;;;;;;5007418;51;21057;-30
2022/08/12 10:39:42;;;;;;;32.35;22.25;;;27.20;44.90;;;;;;5041066;51;21488;-29
2022/08/12 10:44:43;;;;;;;31.90;21.67;;;27.20;44.90;;;;;;5031391;51;20974;-29
2022/08/12 10:49:43;;;;;;;32.65;21.98;;;27.20;45.10;;;;;;5008609;55;21041;-27
2022/08/12 10:54:49;;;;;;;29.67;20.95;;;27.30;45.00;;;;;;5016507;51;21022;-29
2022/08/12 10:59:54;;;;;;;29.80;21.10;;;27.20;45.00;;;;;;5021633;51;21028;-27
2022/08/12 11:04:58;;;;;;;30.30;20.40;;;27.20;44.90;;;;;;5039264;51;21487;-27
2022/08/12 11:09:59;;;;;;;28.50;19.33;;;27.20;45.00;;;;;;5028771;51;21460;-28
2022/08/12 11:15:00;;;;;;;29.02;19.87;;;27.30;45.00;;;;;;5054394;51;21527;-29
2022/08/12 11:20:01;;;;;;;28.33;19.95;;;27.30;45.20;;;;;;5022236;51;21002;-30
2022/08/12 11:25:02;;;;;;;26.33;18.87;;;27.20;45.00;;;;;;5037060;51;21022;-30
2022/08/12 11:30:04;;;;;;;27.62;19.40;;;27.20;45.10;;;;;;5024950;51;21009;-30
2022/08/12 11:35:06;;;;;;;27.17;18.70;;;27.20;45.20;;;;;;5077454;51;20955;-29
2022/08/12 11:40:07;;;;;;;27.45;19.95;;;27.20;45.20;;;;;;5033744;51;21029;-29
2022/08/12 11:45:09;;;;;;;24.45;17.65;;;27.30;45.50;;;;;;5056947;51;20966;-31
2022/08/12 11:50:11;;;;;;;25.17;17.70;;;27.20;45.20;;;;;;5012353;51;21594;-30
2022/08/12 11:55:12;;;;;;;24.00;17.77;;;27.30;45.30;;;;;;5007930;55;21484;-29
2022/08/12 12:00:13;;;;;;;23.73;17.20;;;27.30;45.30;;;;;;5009147;51;21010;-31
2022/08/12 12:05:15;;;;;;;24.67;16.83;;;27.30;45.30;;;;;;5027305;51;20962;-28
2022/08/12 12:10:18;;;;;;;23.52;17.20;;;27.30;45.20;;;;;;5021545;51;21993;-29
2022/08/12 12:15:19;;;;;;;23.23;16.83;;;27.30;45.20;;;;;;5017003;51;21066;-33
2022/08/12 12:20:20;;;;;;;22.23;16.55;;;27.30;45.30;;;;;;5045582;51;21093;-28
2022/08/12 12:25:21;;;;;;;22.80;16.20;;;27.30;45.40;;;;;;5014444;51;21543;-29
2022/08/12 12:30:22;;;;;;;21.33;16.10;;;27.30;45.40;;;;;;5014316;51;20970;-29
2022/08/12 12:35:23;;;;;;;23.12;16.52;;;27.30;45.40;;;;;;5007314;55;20970;-27
2022/08/12 12:40:25;;;;;;;21.67;16.23;;;27.30;45.50;;;;;;5071955;51;20986;-27
2022/08/12 12:45:26;;;;;;;20.00;15.88;;;27.30;45.40;;;;;;5020098;51;20969;-27
2022/08/12 12:50:29;;;;;;;19.02;15.80;;;27.30;45.40;;;;;;5072839;51;20994;-27
2022/08/12 12:55:36;;;;;;;19.60;16.08;;;27.30;45.50;;;;;;5021451;51;21049;-28
2022/08/12 13:00:43;;;;;;;19.20;15.05;;;27.30;45.50;;;;;;5008114;55;22392;-29
2022/08/12 13:05:44;;;;;;;18.62;15.70;;;27.30;45.40;;;;;;5007214;55;22259;-30
2022/08/12 13:10:45;;;;;;;21.10;16.20;;;27.30;45.50;;;;;;5035717;51;21057;-29
2022/08/12 13:15:48;;;;;;;17.55;14.18;;;27.30;45.50;;;;;;5018304;51;21010;-30
2022/08/12 13:20:49;;;;;;;20.12;15.38;;;27.30;45.40;;;;;;5007604;55;21552;-36
2022/08/12 13:25:49;;;;;;;21.08;16.50;;;27.30;45.50;;;;;;5012291;51;21024;-30
2022/08/12 13:30:52;;;;;;;19.30;15.48;;;27.30;45.40;;;;;;5044395;51;21488;-32
2022/08/12 13:36:02;;;;;;;19.35;15.13;;;27.30;45.50;;;;;;5013214;51;22197;-29
2022/08/12 13:41:05;;;;;;;18.23;14.95;;;27.30;45.50;;;;;;5009970;51;21610;-27
2022/08/12 13:46:08;;;;;;;19.35;14.98;;;27.30;45.50;;;;;;5008156;55;20982;-34
2022/08/12 13:51:09;;;;;;;19.87;15.05;;;27.30;45.50;;;;;;5042873;51;21603;-25
2022/08/12 13:56:10;;;;;;;18.55;14.70;;;27.30;45.60;;;;;;5033041;51;21002;-31
2022/08/12 14:01:11;;;;;;;19.52;15.27;;;27.30;45.50;;;;;;5018881;51;21452;-27
2022/08/12 14:06:13;;;;;;;18.23;14.98;;;27.30;45.50;;;;;;5007711;53;21134;-27
2022/08/12 14:11:14;;;;;;;19.65;14.75;;;27.30;45.60;;;;;;5018871;51;21038;-26
2022/08/12 14:16:16;;;;;;;16.85;13.82;;;27.30;45.80;;;;;;5021150;51;21133;-31
2022/08/12 14:21:19;;;;;;;17.83;14.90;;;27.30;45.60;;;;;;5010421;51;21543;-33
2022/08/12 14:26:23;;;;;;;17.45;14.23;;;27.30;45.70;;;;;;5010918;51;21543;-32
2022/08/12 14:31:24;;;;;;;17.02;14.05;;;27.30;45.80;;;;;;5018263;51;21520;-27
2022/08/12 14:36:25;;;;;;;16.98;14.65;;;27.30;45.90;;;;;;5008225;51;20990;-33
2022/08/12 14:41:26;;;;;;;21.20;14.38;;;27.40;45.90;;;;;;5016771;51;21006;-29
2022/08/12 14:46:27;;;;;;;19.77;15.57;;;27.30;45.90;;;;;;5031285;51;21030;-27
2022/08/12 14:51:27;;;;;;;17.20;14.57;;;27.30;45.90;;;;;;5010175;51;21046;-28
2022/08/12 14:56:28;;;;;;;17.60;14.85;;;27.30;46.00;;;;;;5057807;51;21037;-27
2022/08/12 15:01:40;;;;;;;19.35;14.60;;;27.30;46.00;;;;;;5007510;55;21062;-28
2022/08/12 15:06:44;;;;;;;16.52;13.50;;;27.30;46.10;;;;;;5015293;51;21092;-32
2022/08/12 15:11:46;;;;;;;17.87;14.25;;;27.40;46.20;;;;;;5007520;55;21499;-32
2022/08/12 15:16:47;;;;;;;18.65;15.43;;;27.30;46.20;;;;;;5021120;51;21010;-34
2022/08/12 15:21:48;;;;;;;16.12;13.38;;;27.40;46.20;;;;;;5007266;55;21546;-27
2022/08/12 15:26:52;;;;;;;17.02;14.13;;;27.40;46.50;;;;;;5009377;51;20948;-31
2022/08/12 15:31:53;;;;;;;18.90;13.95;;;27.40;46.30;;;;;;5017200;51;21037;-27
2022/08/12 15:36:53;;;;;;;15.52;13.35;;;27.40;46.40;;;;;;5017284;51;21097;-26
2022/08/12 15:41:54;;;;;;;16.23;13.13;;;27.30;46.30;;;;;;5033018;51;21512;-27
2022/08/12 15:46:55;;;;;;;17.73;14.02;;;27.40;46.50;;;;;;5055762;51;21534;-27
2022/08/12 15:51:56;;;;;;;15.18;13.35;;;27.40;46.40;;;;;;5009657;51;20989;-27
2022/08/12 15:56:57;;;;;;;15.38;13.40;;;27.40;46.50;;;;;;5008309;55;21516;-28
2022/08/12 16:01:58;;;;;;;14.87;12.45;;;27.40;46.60;;;;;;5039353;51;21081;-28
2022/08/12 16:07:02;;;;;;;14.98;12.75;;;27.40;46.80;;;;;;5008533;52;20982;-32
2022/08/12 16:12:04;;;;;;;15.32;12.43;;;27.40;46.70;;;;;;5024581;51;21590;-29
2022/08/12 16:17:04;;;;;;;16.73;13.30;;;27.40;46.50;;;;;;5022737;51;21160;-32
2022/08/12 16:22:05;;;;;;;15.30;13.00;;;27.40;46.60;;;;;;5036581;51;21047;-40
2022/08/12 16:27:06;;;;;;;15.13;12.57;;;27.40;46.50;;;;;;5007616;55;21519;-35
2022/08/12 16:32:08;;;;;;;15.27;12.52;;;27.40;46.60;;;;;;5021895;51;20997;-26
2022/08/12 16:37:12;;;;;;;15.70;12.73;;;27.40;46.70;;;;;;5008674;51;20978;-33
2022/08/12 16:42:14;;;;;;;15.27;13.10;;;27.40;46.50;;;;;;5015905;51;21474;-28
2022/08/12 16:47:15;;;;;;;14.77;13.00;;;27.40;46.60;;;;;;5024855;51;21452;-31
2022/08/12 16:52:17;;;;;;;16.10;12.85;;;27.40;46.80;;;;;;5048217;51;21572;-28
2022/08/12 16:57:19;;;;;;;14.00;12.52;;;27.40;46.50;;;;;;5007584;55;20962;-37
2022/08/12 17:02:19;;;;;;;15.63;13.15;;;27.40;46.50;;;;;;5029930;51;21139;-34
2022/08/12 17:07:20;;;;;;;15.70;13.43;;;27.40;46.40;;;;;;5055542;51;20982;-35
2022/08/12 17:12:21;;;;;;;15.77;12.95;;;27.40;46.40;;;;;;5016645;51;21598;-30
2022/08/12 17:17:24;;;;;;;14.55;12.98;;;27.40;46.50;;;;;;5007938;51;21006;-34
2022/08/12 17:22:29;;;;;;;15.18;12.82;;;27.30;46.30;;;;;;5015942;51;21527;-27
2022/08/12 17:27:39;;;;;;;15.07;13.10;;;27.40;46.30;;;;;;5011931;51;21440;-34
2022/08/12 17:32:42;;;;;;;16.40;13.43;;;27.40;46.40;;;;;;5024982;51;21480;-33
2022/08/12 17:37:43;;;;;;;18.65;12.90;;;27.40;46.30;;;;;;5042207;51;21529;-32
2022/08/12 17:42:45;;;;;;;15.90;13.35;;;27.40;46.30;;;;;;5006317;55;20990;-27
2022/08/12 17:47:48;;;;;;;17.10;14.07;;;27.40;46.30;;;;;;5008888;51;21499;-30
2022/08/12 17:52:50;;;;;;;16.17;13.32;;;27.40;46.40;;;;;;5049857;51;21507;-30
2022/08/12 17:57:56;;;;;;;16.20;13.68;;;27.40;46.40;;;;;;5013357;51;21555;-31
2022/08/12 18:02:58;;;;;;;14.48;12.98;;;27.40;46.40;;;;;;5036733;51;21519;-27
2022/08/12 18:08:06;;;;;;;15.95;13.30;;;27.40;46.50;;;;;;5007179;55;21483;-32
2022/08/12 18:13:08;;;;;;;14.43;12.63;;;27.40;46.40;;;;;;5008789;51;20986;-31
2022/08/12 18:18:09;;;;;;;15.38;12.55;;;27.40;46.30;;;;;;5043504;51;21629;-28
2022/08/12 18:23:10;;;;;;;15.10;13.13;;;27.40;46.40;;;;;;5038726;51;21010;-30
2022/08/12 18:28:13;;;;;;;14.00;12.18;;;27.40;46.40;;;;;;5016074;51;21528;-28
2022/08/12 18:33:14;;;;;;;15.70;12.55;;;27.30;46.40;;;;;;5008304;51;20970;-32
2022/08/12 18:38:15;;;;;;;14.98;13.07;;;27.30;46.40;;;;;;5007071;55;20982;-27
2022/08/12 18:43:18;;;;;;;13.62;11.38;;;27.40;46.40;;;;;;5014529;51;21006;-33
2022/08/12 18:48:19;;;;;;;14.57;12.07;;;27.40;46.50;;;;;;5045826;51;21508;-27
2022/08/12 18:53:21;;;;;;;15.55;12.48;;;27.30;46.50;;;;;;5065474;51;21543;-31
2022/08/12 18:58:27;;;;;;;14.57;11.70;;;27.40;46.50;;;;;;5028871;51;21029;-35
2022/08/12 19:03:28;;;;;;;14.43;11.88;;;27.40;46.60;;;;;;5053164;51;21058;-26
2022/08/12 19:08:29;;;;;;;13.32;11.80;;;27.40;46.70;;;;;;5031537;51;21046;-32
2022/08/12 19:18:51;;;;;;;14.52;12.20;;;27.30;46.70;;;;;;5034798;51;21549;-30
2022/08/12 19:29:13;;;;;;;13.35;11.95;;;27.30;47.00;;;;;;5031223;51;21034;-37
2022/08/12 19:34:20;;;;;;;14.87;12.40;;;27.30;46.90;;;;;;5023545;51;20978;-27
2022/08/12 19:39:21;;;;;;;14.35;12.63;;;27.40;47.10;;;;;;5034534;51;21538;-31
2022/08/12 19:44:23;;;;;;;15.80;12.82;;;27.30;47.10;;;;;;5020928;51;21114;-29
2022/08/12 19:49:24;;;;;;;15.40;12.93;;;27.30;47.30;;;;;;5126999;51;21444;-27
2022/08/12 19:54:26;;;;;;;16.45;13.23;;;27.30;47.30;;;;;;5029661;51;21507;-27
2022/08/12 19:59:37;;;;;;;15.73;12.73;;;27.30;47.30;;;;;;5016926;51;21037;-27
2022/08/12 20:04:49;;;;;;;13.45;11.52;;;27.30;47.50;;;;;;5016866;51;21010;-29
2022/08/12 20:09:52;;;;;;;14.13;10.93;;;27.40;47.70;;;;;;5047904;51;21480;-31
2022/08/12 20:14:54;;;;;;;13.80;11.73;;;27.30;47.60;;;;;;5033119;51;20981;-35
2022/08/12 20:19:56;;;;;;;15.07;11.93;;;27.30;47.80;;;;;;5045531;51;21037;-26
2022/08/12 20:25:05;;;;;;;16.10;12.07;;;27.30;47.90;;;;;;5010548;51;21452;-31
2022/08/12 20:30:09;;;;;;;13.70;11.02;;;27.30;48.10;;;;;;5030437;51;21001;-28
2022/08/12 20:35:10;;;;;;;17.75;10.98;;;27.30;48.20;;;;;;5026658;51;22165;-37
2022/08/12 20:40:11;;;;;;;13.95;11.05;;;27.30;48.30;;;;;;5020040;51;21006;-29
2022/08/12 20:45:13;;;;;;;13.95;9.85;;;27.30;48.60;;;;;;5044800;51;21013;-29
2022/08/12 20:50:14;;;;;;;12.35;10.68;;;27.30;48.80;;;;;;5064355;51;20978;-31
2022/08/12 20:55:15;;;;;;;14.45;10.35;;;27.30;48.90;;;;;;5059958;51;21558;-27
2022/08/12 21:00:21;;;;;;;15.65;10.73;;;27.40;49.10;;;;;;5007528;55;21044;-30
2022/08/12 21:11:58;;;;;;;10.67;9.57;;;27.30;49.40;;;;;;5037958;51;21527;-36
2022/08/12 21:17:01;;;;;;;11.57;9.48;;;27.30;49.40;;;;;;5007039;55;21010;-36
2022/08/12 21:22:01;;;;;;;12.27;9.57;;;27.30;49.50;;;;;;5015203;51;21061;-31
2022/08/12 21:27:03;;;;;;;11.73;8.90;;;27.30;49.70;;;;;;5014516;51;21309;-38
2022/08/12 21:32:04;;;;;;;10.80;8.15;;;27.30;49.80;;;;;;5014327;51;21606;-29
2022/08/12 21:37:05;;;;;;;11.32;8.30;;;27.30;49.90;;;;;;5012492;51;20970;-28
2022/08/12 21:42:06;;;;;;;12.23;8.60;;;27.30;50.10;;;;;;5042939;51;20990;-35
2022/08/12 21:47:13;;;;;;;10.45;8.70;;;27.30;50.00;;;;;;5015328;51;20994;-35
2022/08/12 21:52:14;;;;;;;9.20;8.25;;;27.30;50.10;;;;;;5072201;51;20966;-27
2022/08/12 21:57:14;;;;;;;9.68;7.97;;;27.30;50.20;;;;;;5009470;51;21508;-28
2022/08/12 22:09:55;;;;;;;12.05;7.93;;;27.30;50.30;;;;;;5008469;51;21026;-35
2022/08/12 22:14:56;;;;;;;12.20;8.27;;;27.30;50.40;;;;;;5035502;51;21547;-28
2022/08/12 22:19:56;;;;;;;9.32;7.60;;;27.30;50.50;;;;;;5010913;51;21010;-29
2022/08/12 22:24:58;;;;;;;10.13;7.70;;;27.30;50.60;;;;;;5013958;51;21018;-34
2022/08/12 22:35:28;;;;;;;8.95;7.75;;;27.30;50.80;;;;;;5015174;51;21065;-27
2022/08/12 22:40:29;;;;;;;9.52;7.53;;;27.30;50.90;;;;;;5020585;51;21500;-29
2022/08/12 22:50:49;;;;;;;9.75;7.28;;;27.30;50.90;;;;;;5007905;51;21350;-28
2022/08/12 22:55:51;;;;;;;9.68;7.37;;;27.30;51.00;;;;;;5034425;51;21508;-30
2022/08/12 23:00:52;;;;;;;8.10;7.12;;;27.30;51.10;;;;;;5008047;55;21504;-32
2022/08/12 23:05:53;;;;;;;8.70;6.47;;;27.30;51.20;;;;;;5008132;55;21038;-27
2022/08/12 23:10:53;;;;;;;9.20;7.35;;;27.30;51.20;;;;;;5024241;51;20978;-29
2022/08/12 23:15:58;;;;;;;8.32;6.60;;;27.30;50.70;;;;;;5011474;51;21069;-36
2022/08/12 23:20:59;;;;;;;7.95;6.72;;;27.30;51.40;;;;;;5008460;51;21491;-26
2022/08/12 23:26:00;;;;;;;8.05;6.47;;;27.30;51.40;;;;;;5022128;51;21002;-33
2022/08/12 23:31:02;;;;;;;9.23;6.93;;;27.30;51.60;;;;;;5088828;51;20986;-27
2022/08/12 23:36:03;;;;;;;9.45;6.85;;;27.30;51.60;;;;;;5030442;51;21925;-29
2022/08/12 23:41:11;;;;;;;8.20;6.85;;;27.30;51.70;;;;;;5059340;51;20998;-26
2022/08/12 23:46:14;;;;;;;8.35;6.55;;;27.30;51.90;;;;;;5021742;51;21514;-30
2022/08/12 23:51:17;;;;;;;9.18;6.57;;;27.30;52.10;;;;;;5068246;51;21448;-26
2022/08/12 23:56:18;;;;;;;8.25;6.75;;;27.20;52.00;;;;;;5029352;51;20990;-31
